createdAt,value
2023-01-25T00:02:11.695Z,99.97
2023-01-25T00:07:20.763Z,99.97
2023-01-25T00:12:28.128Z,100.00
2023-01-25T00:17:35.574Z,99.98
2023-01-25T00:22:43.772Z,99.93
2023-01-25T00:27:51.223Z,99.99
2023-01-25T00:33:03.786Z,99.93
2023-01-25T00:38:30.232Z,99.94
2023-01-25T00:43:37.301Z,99.87
2023-01-25T00:48:42.914Z,99.89
2023-01-25T00:53:50.011Z,99.61
2023-01-25T00:58:57.078Z,99.59
2023-01-25T01:04:05.749Z,99.51
2023-01-25T01:09:18.708Z,99.56
2023-01-25T01:19:35.760Z,99.21
2023-01-25T01:24:43.776Z,99.09
2023-01-25T01:29:51.990Z,99.15
2023-01-25T01:34:59.768Z,99.19
2023-01-25T01:40:08.457Z,98.97
2023-01-25T01:45:46.114Z,98.59
2023-01-25T01:50:59.025Z,98.33
2023-01-25T01:56:12.848Z,98.45
2023-01-25T02:01:20.688Z,98.49
2023-01-25T02:06:35.213Z,98.68
2023-01-25T02:11:42.851Z,98.50
2023-01-25T02:16:50.372Z,98.53
2023-01-25T02:22:00.967Z,98.45
2023-01-25T02:27:08.590Z,98.38
2023-01-25T02:32:16.473Z,98.02
2023-01-25T02:37:23.766Z,98.42
2023-01-25T02:42:35.979Z,98.51
2023-01-25T02:47:43.269Z,98.77
2023-01-25T02:52:50.487Z,98.81
2023-01-25T02:57:56.784Z,98.68
2023-01-25T03:03:05.315Z,98.44
2023-01-25T03:08:12.868Z,98.71
2023-01-25T03:13:20.431Z,98.91
2023-01-25T03:18:28.176Z,98.76
2023-01-25T03:23:35.638Z,98.97
2023-01-25T03:28:43.993Z,98.73
2023-01-25T03:33:51.297Z,98.72
2023-01-25T03:38:58.609Z,98.74
2023-01-25T03:44:04.138Z,98.84
2023-01-25T03:49:11.606Z,98.60
2023-01-25T03:54:18.900Z,98.43
2023-01-25T03:59:26.048Z,98.12
2023-01-25T04:04:31.602Z,97.13
2023-01-25T04:09:38.828Z,97.34
2023-01-25T04:20:18.111Z,97.92
2023-01-25T04:25:25.609Z,98.27
2023-01-25T04:30:33.311Z,98.64
2023-01-25T04:35:41.092Z,97.94
2023-01-25T04:40:48.970Z,97.98
2023-01-25T04:45:56.657Z,98.51
2023-01-25T04:51:03.925Z,98.98
2023-01-25T04:56:10.412Z,99.10
2023-01-25T05:01:18.278Z,99.25
2023-01-25T05:06:25.800Z,99.40
2023-01-25T05:11:32.983Z,99.57
2023-01-25T05:16:39.130Z,99.53
2023-01-25T05:22:01.693Z,99.37
2023-01-25T05:27:09.933Z,99.53
2023-01-25T05:32:19.654Z,99.63
2023-01-25T05:37:26.944Z,99.72
2023-01-25T05:42:34.204Z,99.70
2023-01-25T05:47:39.720Z,99.69
2023-01-25T05:52:48.508Z,99.64
2023-01-25T05:57:58.355Z,99.79
2023-01-25T06:03:05.857Z,99.73
2023-01-25T06:08:14.041Z,99.83
2023-01-25T06:13:22.567Z,99.68
2023-01-25T06:18:31.408Z,99.79
2023-01-25T06:23:38.908Z,99.66
2023-01-25T06:28:47.455Z,99.78
2023-01-25T06:33:55.430Z,99.87
2023-01-25T06:39:03.465Z,99.52
2023-01-25T06:44:11.633Z,99.34
2023-01-25T06:59:00.327Z,98.57
2023-01-25T07:04:08.134Z,99.20
2023-01-25T07:09:16.640Z,99.28
2023-01-25T07:14:23.784Z,98.40
2023-01-25T07:19:29.548Z,98.24
2023-01-25T07:24:37.267Z,97.99
2023-01-25T07:29:44.877Z,98.07
2023-01-25T07:34:52.268Z,98.39
2023-01-25T07:39:59.375Z,98.81
2023-01-25T07:45:08.353Z,98.90
2023-01-25T07:50:16.674Z,99.19
2023-01-25T07:55:24.360Z,99.12
2023-01-25T08:00:31.984Z,98.90
2023-01-25T08:05:40.224Z,98.72
2023-01-25T08:10:48.451Z,98.93
2023-01-25T08:15:59.189Z,98.69
2023-01-25T08:21:07.693Z,98.79
2023-01-25T08:26:17.169Z,99.02
2023-01-25T08:31:26.182Z,99.01
2023-01-25T08:36:35.389Z,98.85
2023-01-25T08:41:43.093Z,98.70
2023-01-25T08:46:51.518Z,98.51
2023-01-25T08:51:59.680Z,98.85
2023-01-25T08:57:07.972Z,99.85
2023-01-25T09:02:15.875Z,99.76
2023-01-25T09:07:23.187Z,99.14
2023-01-25T09:12:28.711Z,98.84
2023-01-25T09:17:39.296Z,98.79
2023-01-25T09:22:47.013Z,98.40
2023-01-25T09:27:54.742Z,98.32
2023-01-25T09:33:05.022Z,97.56
2023-01-25T09:38:12.761Z,97.95
2023-01-25T09:43:32.939Z,97.57
2023-01-25T09:48:48.625Z,97.26
2023-01-25T09:53:58.746Z,97.25
2023-01-25T09:59:13.363Z,97.16
2023-01-25T10:04:24.157Z,96.96
2023-01-25T10:09:40.723Z,97.16
2023-01-25T10:14:49.259Z,96.80
2023-01-25T10:20:10.820Z,96.04
2023-01-25T10:25:33.480Z,95.75
2023-01-25T10:30:44.584Z,95.57
2023-01-25T10:35:53.417Z,95.79
2023-01-25T10:41:05.771Z,96.00
2023-01-25T10:46:23.217Z,95.81
2023-01-25T10:51:32.056Z,95.69
2023-01-25T10:56:43.729Z,95.77
2023-01-25T11:01:51.430Z,96.00
2023-01-25T11:06:59.316Z,95.79
2023-01-25T11:12:18.243Z,95.64
2023-01-25T11:17:32.411Z,95.20
2023-01-25T11:22:50.152Z,95.24
2023-01-25T11:28:16.118Z,95.45
2023-01-25T11:33:28.167Z,94.82
2023-01-25T11:38:36.018Z,94.37
2023-01-25T11:44:05.020Z,94.41
2023-01-25T11:49:27.809Z,94.20
2023-01-25T11:54:59.049Z,94.09
2023-01-25T12:00:24.592Z,94.11
2023-01-25T12:05:55.342Z,94.01
2023-01-25T12:11:09.805Z,93.37
2023-01-25T12:16:45.242Z,93.08
2023-01-25T12:22:16.424Z,92.32
2023-01-25T12:27:39.923Z,93.14
2023-01-25T12:32:55.461Z,93.39
2023-01-25T12:38:14.888Z,93.34
2023-01-25T12:43:28.753Z,92.88
2023-01-25T12:48:42.791Z,93.01
2023-01-25T12:53:52.170Z,93.07
2023-01-25T12:59:08.695Z,92.95
2023-01-25T13:04:27.458Z,92.62
2023-01-25T13:09:41.216Z,92.36
2023-01-25T13:14:48.799Z,92.56
2023-01-25T13:19:56.641Z,92.37
2023-01-25T13:25:22.993Z,92.46
2023-01-25T13:30:52.296Z,91.99
2023-01-25T13:36:20.579Z,91.86
2023-01-25T13:41:28.999Z,91.20
2023-01-25T13:46:36.509Z,91.11
2023-01-25T13:51:44.841Z,91.01
2023-01-25T13:57:06.417Z,90.80
2023-01-25T14:02:20.521Z,90.90
2023-01-25T14:07:37.168Z,90.05
2023-01-25T14:21:10.682Z,89.67
2023-01-25T14:26:26.692Z,89.58
2023-01-25T14:31:36.614Z,89.84
2023-01-25T14:36:44.088Z,89.99
2023-01-25T14:42:00.823Z,90.11
2023-01-25T14:47:29.858Z,90.18
2023-01-25T14:52:40.757Z,90.03
2023-01-25T14:57:49.410Z,89.74
2023-01-25T15:02:59.023Z,89.22
2023-01-25T15:08:29.460Z,89.17
2023-01-25T15:13:37.092Z,89.35
2023-01-25T15:18:53.095Z,89.36
2023-01-25T15:24:05.107Z,89.38
2023-01-25T15:29:16.430Z,89.32
2023-01-25T15:34:26.219Z,89.49
2023-01-25T15:39:35.276Z,89.53
2023-01-25T15:44:42.957Z,89.45
2023-01-25T15:49:50.185Z,89.90
2023-01-25T15:55:01.406Z,89.70
2023-01-25T16:00:21.528Z,89.57
2023-01-25T16:05:29.682Z,89.63
2023-01-25T16:10:37.217Z,89.73
2023-01-25T16:15:49.707Z,89.31
2023-01-25T16:20:57.557Z,88.77
2023-01-25T16:26:05.504Z,89.08
2023-01-25T16:31:30.847Z,88.61
2023-01-25T16:36:39.753Z,88.92
2023-01-25T16:41:47.684Z,88.30
2023-01-25T16:46:55.601Z,87.94
2023-01-25T16:52:03.706Z,87.79
2023-01-25T16:57:20.305Z,88.44
2023-01-25T17:02:28.452Z,88.93
2023-01-25T17:07:36.326Z,88.88
2023-01-25T17:12:45.634Z,88.89
2023-01-25T17:17:52.949Z,89.09
2023-01-25T17:23:00.337Z,89.02
2023-01-25T17:28:07.470Z,89.18
2023-01-25T17:33:17.513Z,89.42
2023-01-25T17:38:24.764Z,89.43
2023-01-25T17:43:34.367Z,89.34
2023-01-25T17:48:42.751Z,89.22
2023-01-25T17:53:50.049Z,89.07
2023-01-25T17:58:58.567Z,88.95
2023-01-25T18:04:09.804Z,88.94
2023-01-25T18:09:17.725Z,88.71
2023-01-25T18:14:24.997Z,88.82
2023-01-25T18:19:33.228Z,88.11
2023-01-25T18:24:41.034Z,87.66
2023-01-25T18:29:53.983Z,87.63
2023-01-25T18:35:01.304Z,87.70
2023-01-25T18:40:11.891Z,87.58
2023-01-25T18:45:19.376Z,87.71
2023-01-25T18:50:26.900Z,87.60
2023-01-25T18:55:34.377Z,87.95
2023-01-25T19:00:41.691Z,87.70
2023-01-25T19:05:54.649Z,85.76
2023-01-25T19:11:06.312Z,86.87
2023-01-25T19:16:15.832Z,87.29
2023-01-25T19:21:25.526Z,87.60
2023-01-25T19:26:33.054Z,87.83
2023-01-25T19:31:41.197Z,87.80
2023-01-25T19:36:50.275Z,87.67
2023-01-25T19:41:58.183Z,87.82
2023-01-25T19:47:06.020Z,88.13
2023-01-25T19:52:13.691Z,87.06
2023-01-25T19:57:20.934Z,86.54
2023-01-25T20:02:28.397Z,87.50
2023-01-25T20:07:35.869Z,86.79
2023-01-25T20:12:43.214Z,87.76
2023-01-25T20:17:50.673Z,87.47
2023-01-25T20:22:57.774Z,86.74
2023-01-25T20:28:03.413Z,86.08
2023-01-25T20:33:10.485Z,87.63
2023-01-25T20:38:18.543Z,87.99
2023-01-25T20:43:26.608Z,87.91
2023-01-25T20:48:36.667Z,88.40
2023-01-25T20:53:45.400Z,88.71
2023-01-25T20:58:54.175Z,88.65
2023-01-25T21:04:01.646Z,88.57
2023-01-25T21:09:08.904Z,88.83
2023-01-25T21:14:18.049Z,88.72
2023-01-25T21:19:28.237Z,88.52
2023-01-25T21:24:35.756Z,88.65
2023-01-25T21:29:44.059Z,88.59
2023-01-25T21:34:51.571Z,88.70
2023-01-25T21:39:58.875Z,88.93
2023-01-25T21:45:25.229Z,88.64
2023-01-25T21:50:50.342Z,88.32
2023-01-25T21:55:59.706Z,88.32
2023-01-25T22:01:10.365Z,88.51
2023-01-25T22:06:18.822Z,88.80
2023-01-25T22:11:26.434Z,88.60
2023-01-25T22:16:33.797Z,88.95
2023-01-25T22:21:41.301Z,88.79
2023-01-25T22:26:59.390Z,88.93
2023-01-25T22:32:07.110Z,88.23
2023-01-25T22:37:14.695Z,88.50
2023-01-25T22:42:22.003Z,88.37
2023-01-25T22:47:30.168Z,88.65
2023-01-25T22:52:38.038Z,88.63
2023-01-25T22:57:45.690Z,88.56
2023-01-25T23:02:53.327Z,88.25
2023-01-25T23:08:00.712Z,87.39
2023-01-25T23:13:08.376Z,87.19
2023-01-25T23:18:33.232Z,87.92
2023-01-25T23:23:41.079Z,87.91
2023-01-25T23:28:53.705Z,88.05
2023-01-25T23:34:05.096Z,87.98
2023-01-25T23:39:14.798Z,87.36
2023-01-25T23:44:22.902Z,87.87
2023-01-25T23:49:30.632Z,88.06
2023-01-25T23:54:38.649Z,88.13
2023-01-25T23:59:45.926Z,88.62
